sensor_id;sensor_type;location;lat;lon;timestamp;P1;durP1;ratioP1;P2;durP2;ratioP2
1625;SDS011;806;48.770;9.156;2023-04-10T00:00:30;2.35;;;1.60;;
1625;SDS011;806;48.770;9.156;2023-04-10T00:02:57;3.30;;;2.10;;
1625;SDS011;806;48.770;9.156;2023-04-10T00:05:26;2.70;;;1.70;;
1625;SDS011;806;48.770;9.156;2023-04-10T00:07:53;3.78;;;2.53;;
1625;SDS011;806;48.770;9.156;2023-04-10T00:10:20;3.58;;;2.03;;
1625;SDS011;806;48.770;9.156;2023-04-10T00:12:50;3.40;;;2.40;;
1625;SDS011;806;48.770;9.156;2023-04-10T00:15:19;3.80;;;2.42;;
1625;SDS011;806;48.770;9.156;2023-04-10T00:17:46;4.23;;;2.37;;
1625;SDS011;806;48.770;9.156;2023-04-10T00:20:19;3.10;;;2.47;;
1625;SDS011;806;48.770;9.156;2023-04-10T00:22:46;3.50;;;2.35;;
1625;SDS011;806;48.770;9.156;2023-04-10T00:25:13;4.10;;;2.40;;
1625;SDS011;806;48.770;9.156;2023-04-10T00:27:41;4.15;;;2.60;;
1625;SDS011;806;48.770;9.156;2023-04-10T00:30:08;3.78;;;2.40;;
1625;SDS011;806;48.770;9.156;2023-04-10T00:32:39;3.42;;;2.20;;
1625;SDS011;806;48.770;9.156;2023-04-10T00:35:08;2.90;;;2.40;;
1625;SDS011;806;48.770;9.156;2023-04-10T00:37:37;3.20;;;2.70;;
1625;SDS011;806;48.770;9.156;2023-04-10T00:40:05;4.38;;;2.50;;
1625;SDS011;806;48.770;9.156;2023-04-10T00:42:33;4.53;;;2.60;;
1625;SDS011;806;48.770;9.156;2023-04-10T00:45:00;3.33;;;2.10;;
1625;SDS011;806;48.770;9.156;2023-04-10T00:47:28;3.83;;;2.67;;
1625;SDS011;806;48.770;9.156;2023-04-10T00:49:56;4.50;;;3.10;;
1625;SDS011;806;48.770;9.156;2023-04-10T00:52:25;4.35;;;2.90;;
1625;SDS011;806;48.770;9.156;2023-04-10T00:54:52;4.50;;;3.17;;
1625;SDS011;806;48.770;9.156;2023-04-10T00:57:19;4.55;;;3.00;;
1625;SDS011;806;48.770;9.156;2023-04-10T00:59:46;5.30;;;2.87;;
1625;SDS011;806;48.770;9.156;2023-04-10T01:02:17;4.10;;;2.60;;
1625;SDS011;806;48.770;9.156;2023-04-10T01:04:44;4.40;;;2.80;;
1625;SDS011;806;48.770;9.156;2023-04-10T01:07:15;3.90;;;2.33;;
1625;SDS011;806;48.770;9.156;2023-04-10T01:09:54;4.82;;;3.20;;
1625;SDS011;806;48.770;9.156;2023-04-10T01:12:34;4.90;;;3.40;;
1625;SDS011;806;48.770;9.156;2023-04-10T01:15:10;3.53;;;2.60;;
1625;SDS011;806;48.770;9.156;2023-04-10T01:17:42;3.60;;;2.50;;
1625;SDS011;806;48.770;9.156;2023-04-10T01:20:18;3.27;;;2.10;;
1625;SDS011;806;48.770;9.156;2023-04-10T01:25:47;4.00;;;2.60;;
1625;SDS011;806;48.770;9.156;2023-04-10T01:31:26;5.10;;;2.90;;
1625;SDS011;806;48.770;9.156;2023-04-10T01:34:01;4.03;;;2.38;;
1625;SDS011;806;48.770;9.156;2023-04-10T01:36:34;4.20;;;2.63;;
1625;SDS011;806;48.770;9.156;2023-04-10T01:39:04;4.07;;;2.80;;
1625;SDS011;806;48.770;9.156;2023-04-10T01:41:33;4.93;;;2.63;;
1625;SDS011;806;48.770;9.156;2023-04-10T01:44:04;4.80;;;3.28;;
1625;SDS011;806;48.770;9.156;2023-04-10T01:46:33;3.75;;;2.50;;
1625;SDS011;806;48.770;9.156;2023-04-10T01:49:02;4.72;;;3.17;;
1625;SDS011;806;48.770;9.156;2023-04-10T01:51:30;5.03;;;3.33;;
1625;SDS011;806;48.770;9.156;2023-04-10T01:53:59;4.95;;;2.80;;
1625;SDS011;806;48.770;9.156;2023-04-10T01:56:27;5.40;;;3.65;;
1625;SDS011;806;48.770;9.156;2023-04-10T01:58:55;5.03;;;3.10;;
1625;SDS011;806;48.770;9.156;2023-04-10T02:01:23;3.90;;;2.97;;
1625;SDS011;806;48.770;9.156;2023-04-10T02:03:51;4.63;;;2.70;;
1625;SDS011;806;48.770;9.156;2023-04-10T02:06:21;5.13;;;3.10;;
1625;SDS011;806;48.770;9.156;2023-04-10T02:08:56;4.55;;;2.85;;
1625;SDS011;806;48.770;9.156;2023-04-10T02:11:40;3.90;;;2.40;;
1625;SDS011;806;48.770;9.156;2023-04-10T02:14:14;4.80;;;2.72;;
1625;SDS011;806;48.770;9.156;2023-04-10T02:16:44;4.05;;;2.85;;
1625;SDS011;806;48.770;9.156;2023-04-10T02:19:12;3.53;;;2.25;;
1625;SDS011;806;48.770;9.156;2023-04-10T02:21:39;4.30;;;2.90;;
1625;SDS011;806;48.770;9.156;2023-04-10T02:24:07;3.80;;;2.58;;
1625;SDS011;806;48.770;9.156;2023-04-10T02:26:44;3.90;;;2.25;;
1625;SDS011;806;48.770;9.156;2023-04-10T02:29:11;3.93;;;2.60;;
1625;SDS011;806;48.770;9.156;2023-04-10T02:31:39;4.82;;;2.35;;
1625;SDS011;806;48.770;9.156;2023-04-10T02:34:07;3.33;;;2.35;;
1625;SDS011;806;48.770;9.156;2023-04-10T02:36:35;4.20;;;2.85;;
1625;SDS011;806;48.770;9.156;2023-04-10T02:39:02;3.80;;;2.40;;
1625;SDS011;806;48.770;9.156;2023-04-10T02:41:30;5.40;;;2.47;;
1625;SDS011;806;48.770;9.156;2023-04-10T02:43:57;3.97;;;2.77;;
1625;SDS011;806;48.770;9.156;2023-04-10T02:46:25;3.83;;;2.30;;
1625;SDS011;806;48.770;9.156;2023-04-10T02:48:52;4.72;;;2.30;;
1625;SDS011;806;48.770;9.156;2023-04-10T02:51:20;3.73;;;2.80;;
1625;SDS011;806;48.770;9.156;2023-04-10T02:53:48;5.40;;;3.00;;
1625;SDS011;806;48.770;9.156;2023-04-10T02:56:17;4.38;;;3.10;;
1625;SDS011;806;48.770;9.156;2023-04-10T02:58:44;4.47;;;3.22;;
1625;SDS011;806;48.770;9.156;2023-04-10T03:01:12;4.68;;;2.90;;
1625;SDS011;806;48.770;9.156;2023-04-10T03:03:39;6.00;;;3.22;;
1625;SDS011;806;48.770;9.156;2023-04-10T03:06:07;4.60;;;2.80;;
1625;SDS011;806;48.770;9.156;2023-04-10T03:08:36;3.83;;;2.70;;
1625;SDS011;806;48.770;9.156;2023-04-10T03:11:03;3.25;;;2.33;;
1625;SDS011;806;48.770;9.156;2023-04-10T03:13:32;4.00;;;2.20;;
1625;SDS011;806;48.770;9.156;2023-04-10T03:15:59;4.40;;;2.55;;
1625;SDS011;806;48.770;9.156;2023-04-10T03:18:27;5.20;;;3.00;;
1625;SDS011;806;48.770;9.156;2023-04-10T03:20:56;5.00;;;2.80;;
1625;SDS011;806;48.770;9.156;2023-04-10T03:23:23;5.03;;;3.00;;
1625;SDS011;806;48.770;9.156;2023-04-10T03:25:51;5.13;;;3.00;;
1625;SDS011;806;48.770;9.156;2023-04-10T03:28:19;3.90;;;2.43;;
1625;SDS011;806;48.770;9.156;2023-04-10T03:30:46;4.18;;;2.30;;
1625;SDS011;806;48.770;9.156;2023-04-10T03:33:13;4.07;;;2.78;;
1625;SDS011;806;48.770;9.156;2023-04-10T03:35:41;4.63;;;3.00;;
1625;SDS011;806;48.770;9.156;2023-04-10T03:38:08;4.13;;;2.28;;
1625;SDS011;806;48.770;9.156;2023-04-10T03:40:35;4.40;;;3.10;;
1625;SDS011;806;48.770;9.156;2023-04-10T03:43:04;6.60;;;2.70;;
1625;SDS011;806;48.770;9.156;2023-04-10T03:45:31;4.55;;;2.83;;
1625;SDS011;806;48.770;9.156;2023-04-10T03:47:58;4.38;;;2.67;;
1625;SDS011;806;48.770;9.156;2023-04-10T03:50:25;4.50;;;3.07;;
1625;SDS011;806;48.770;9.156;2023-04-10T03:52:53;4.80;;;2.80;;
1625;SDS011;806;48.770;9.156;2023-04-10T03:55:20;5.10;;;2.92;;
1625;SDS011;806;48.770;9.156;2023-04-10T03:57:47;4.38;;;2.50;;
1625;SDS011;806;48.770;9.156;2023-04-10T04:00:16;3.67;;;2.53;;
1625;SDS011;806;48.770;9.156;2023-04-10T04:02:47;3.67;;;2.50;;
1625;SDS011;806;48.770;9.156;2023-04-10T04:05:14;3.85;;;2.60;;
1625;SDS011;806;48.770;9.156;2023-04-10T04:07:42;3.58;;;2.13;;
1625;SDS011;806;48.770;9.156;2023-04-10T04:10:09;4.65;;;2.67;;
1625;SDS011;806;48.770;9.156;2023-04-10T04:12:36;5.10;;;2.72;;
1625;SDS011;806;48.770;9.156;2023-04-10T04:15:04;3.67;;;2.35;;
1625;SDS011;806;48.770;9.156;2023-04-10T04:17:33;3.80;;;2.40;;
1625;SDS011;806;48.770;9.156;2023-04-10T04:20:00;4.28;;;2.95;;
1625;SDS011;806;48.770;9.156;2023-04-10T04:22:27;3.63;;;2.35;;
1625;SDS011;806;48.770;9.156;2023-04-10T04:24:55;3.53;;;2.30;;
1625;SDS011;806;48.770;9.156;2023-04-10T04:27:22;4.25;;;2.58;;
1625;SDS011;806;48.770;9.156;2023-04-10T04:29:49;4.47;;;2.30;;
1625;SDS011;806;48.770;9.156;2023-04-10T04:32:16;3.63;;;2.53;;
1625;SDS011;806;48.770;9.156;2023-04-10T04:34:44;4.10;;;2.43;;
1625;SDS011;806;48.770;9.156;2023-04-10T04:37:12;4.00;;;2.75;;
1625;SDS011;806;48.770;9.156;2023-04-10T04:39:39;4.40;;;2.35;;
1625;SDS011;806;48.770;9.156;2023-04-10T04:42:06;3.67;;;2.60;;
1625;SDS011;806;48.770;9.156;2023-04-10T04:44:33;4.83;;;2.60;;
1625;SDS011;806;48.770;9.156;2023-04-10T04:47:00;3.50;;;2.50;;
1625;SDS011;806;48.770;9.156;2023-04-10T04:49:28;4.97;;;2.72;;
1625;SDS011;806;48.770;9.156;2023-04-10T04:51:56;4.50;;;2.60;;
1625;SDS011;806;48.770;9.156;2023-04-10T04:54:23;3.67;;;2.75;;
1625;SDS011;806;48.770;9.156;2023-04-10T04:56:50;3.45;;;2.10;;
1625;SDS011;806;48.770;9.156;2023-04-10T04:59:17;3.83;;;2.10;;
1625;SDS011;806;48.770;9.156;2023-04-10T05:01:44;3.40;;;2.22;;
1625;SDS011;806;48.770;9.156;2023-04-10T05:04:12;3.80;;;2.00;;
1625;SDS011;806;48.770;9.156;2023-04-10T05:06:39;4.20;;;2.10;;
1625;SDS011;806;48.770;9.156;2023-04-10T05:09:07;3.23;;;1.80;;
1625;SDS011;806;48.770;9.156;2023-04-10T05:11:34;3.42;;;2.00;;
1625;SDS011;806;48.770;9.156;2023-04-10T05:14:01;3.22;;;1.90;;
1625;SDS011;806;48.770;9.156;2023-04-10T05:16:29;4.68;;;2.50;;
1625;SDS011;806;48.770;9.156;2023-04-10T05:18:56;2.67;;;2.03;;
1625;SDS011;806;48.770;9.156;2023-04-10T05:21:23;4.15;;;2.55;;
1625;SDS011;806;48.770;9.156;2023-04-10T05:23:51;3.70;;;2.35;;
1625;SDS011;806;48.770;9.156;2023-04-10T05:26:20;4.10;;;3.00;;
1625;SDS011;806;48.770;9.156;2023-04-10T05:28:47;4.55;;;2.40;;
1625;SDS011;806;48.770;9.156;2023-04-10T05:31:14;4.90;;;3.17;;
1625;SDS011;806;48.770;9.156;2023-04-10T05:33:41;3.85;;;2.63;;
1625;SDS011;806;48.770;9.156;2023-04-10T05:36:09;4.80;;;3.13;;
1625;SDS011;806;48.770;9.156;2023-04-10T05:38:38;3.73;;;2.70;;
1625;SDS011;806;48.770;9.156;2023-04-10T05:41:05;3.85;;;2.47;;
1625;SDS011;806;48.770;9.156;2023-04-10T05:43:33;4.15;;;3.00;;
1625;SDS011;806;48.770;9.156;2023-04-10T05:46:01;3.33;;;2.20;;
1625;SDS011;806;48.770;9.156;2023-04-10T05:48:28;4.15;;;2.55;;
1625;SDS011;806;48.770;9.156;2023-04-10T05:50:55;5.68;;;3.05;;
1625;SDS011;806;48.770;9.156;2023-04-10T05:53:26;5.97;;;2.30;;
1625;SDS011;806;48.770;9.156;2023-04-10T05:55:55;3.72;;;2.33;;
1625;SDS011;806;48.770;9.156;2023-04-10T05:58:23;3.30;;;2.38;;
1625;SDS011;806;48.770;9.156;2023-04-10T06:00:52;4.00;;;2.75;;
1625;SDS011;806;48.770;9.156;2023-04-10T06:03:20;3.35;;;2.30;;
1625;SDS011;806;48.770;9.156;2023-04-10T06:05:47;3.60;;;2.17;;
1625;SDS011;806;48.770;9.156;2023-04-10T06:08:15;5.30;;;3.03;;
1625;SDS011;806;48.770;9.156;2023-04-10T06:10:43;4.10;;;2.50;;
1625;SDS011;806;48.770;9.156;2023-04-10T06:13:11;3.50;;;2.45;;
1625;SDS011;806;48.770;9.156;2023-04-10T06:15:39;5.40;;;2.30;;
1625;SDS011;806;48.770;9.156;2023-04-10T06:18:07;4.70;;;2.50;;
1625;SDS011;806;48.770;9.156;2023-04-10T06:20:35;4.00;;;2.50;;
1625;SDS011;806;48.770;9.156;2023-04-10T06:23:02;3.55;;;2.40;;
1625;SDS011;806;48.770;9.156;2023-04-10T06:25:29;3.30;;;1.80;;
1625;SDS011;806;48.770;9.156;2023-04-10T06:27:57;2.53;;;1.70;;
1625;SDS011;806;48.770;9.156;2023-04-10T06:30:24;3.00;;;1.60;;
1625;SDS011;806;48.770;9.156;2023-04-10T06:32:51;2.40;;;1.70;;
1625;SDS011;806;48.770;9.156;2023-04-10T06:35:19;2.60;;;1.70;;
1625;SDS011;806;48.770;9.156;2023-04-10T06:37:47;4.47;;;1.80;;
1625;SDS011;806;48.770;9.156;2023-04-10T06:40:14;3.42;;;1.80;;
1625;SDS011;806;48.770;9.156;2023-04-10T06:42:41;3.80;;;2.20;;
1625;SDS011;806;48.770;9.156;2023-04-10T06:45:09;2.72;;;1.80;;
1625;SDS011;806;48.770;9.156;2023-04-10T06:47:36;2.70;;;1.60;;
1625;SDS011;806;48.770;9.156;2023-04-10T06:50:04;2.90;;;1.60;;
1625;SDS011;806;48.770;9.156;2023-04-10T06:52:33;2.90;;;1.77;;
1625;SDS011;806;48.770;9.156;2023-04-10T06:55:00;2.92;;;1.60;;
1625;SDS011;806;48.770;9.156;2023-04-10T06:57:27;3.40;;;1.60;;
1625;SDS011;806;48.770;9.156;2023-04-10T06:59:54;2.53;;;1.50;;
1625;SDS011;806;48.770;9.156;2023-04-10T07:02:22;2.60;;;1.50;;
1625;SDS011;806;48.770;9.156;2023-04-10T07:04:49;2.95;;;1.80;;
1625;SDS011;806;48.770;9.156;2023-04-10T07:07:17;2.70;;;1.40;;
1625;SDS011;806;48.770;9.156;2023-04-10T07:09:46;2.60;;;1.42;;
1625;SDS011;806;48.770;9.156;2023-04-10T07:12:13;2.40;;;1.65;;
1625;SDS011;806;48.770;9.156;2023-04-10T07:14:41;2.63;;;1.67;;
1625;SDS011;806;48.770;9.156;2023-04-10T07:17:08;2.20;;;1.33;;
1625;SDS011;806;48.770;9.156;2023-04-10T07:19:35;2.50;;;1.40;;
1625;SDS011;806;48.770;9.156;2023-04-10T07:22:02;2.70;;;1.30;;
1625;SDS011;806;48.770;9.156;2023-04-10T07:24:30;2.70;;;1.20;;
1625;SDS011;806;48.770;9.156;2023-04-10T07:27:01;2.50;;;1.30;;
1625;SDS011;806;48.770;9.156;2023-04-10T07:29:28;1.92;;;1.30;;
1625;SDS011;806;48.770;9.156;2023-04-10T07:31:56;2.00;;;1.30;;
1625;SDS011;806;48.770;9.156;2023-04-10T07:34:23;2.45;;;1.30;;
1625;SDS011;806;48.770;9.156;2023-04-10T07:36:50;2.30;;;1.30;;
1625;SDS011;806;48.770;9.156;2023-04-10T07:39:18;2.50;;;1.40;;
1625;SDS011;806;48.770;9.156;2023-04-10T07:41:45;1.90;;;1.20;;
1625;SDS011;806;48.770;9.156;2023-04-10T07:44:13;2.50;;;1.20;;
1625;SDS011;806;48.770;9.156;2023-04-10T07:46:42;1.70;;;1.10;;
1625;SDS011;806;48.770;9.156;2023-04-10T07:49:09;1.50;;;1.00;;
1625;SDS011;806;48.770;9.156;2023-04-10T07:51:36;1.90;;;1.20;;
1625;SDS011;806;48.770;9.156;2023-04-10T07:54:03;1.65;;;1.02;;
1625;SDS011;806;48.770;9.156;2023-04-10T07:56:30;1.48;;;0.95;;
1625;SDS011;806;48.770;9.156;2023-04-10T07:58:58;1.50;;;1.00;;
1625;SDS011;806;48.770;9.156;2023-04-10T08:01:27;1.80;;;1.00;;
1625;SDS011;806;48.770;9.156;2023-04-10T08:03:54;1.77;;;1.10;;
1625;SDS011;806;48.770;9.156;2023-04-10T08:06:21;1.40;;;0.90;;
1625;SDS011;806;48.770;9.156;2023-04-10T08:08:48;1.60;;;1.00;;
1625;SDS011;806;48.770;9.156;2023-04-10T08:11:22;1.50;;;0.93;;
1625;SDS011;806;48.770;9.156;2023-04-10T08:13:51;1.70;;;1.00;;
1625;SDS011;806;48.770;9.156;2023-04-10T08:16:21;1.60;;;1.00;;
1625;SDS011;806;48.770;9.156;2023-04-10T08:18:51;1.50;;;1.00;;
1625;SDS011;806;48.770;9.156;2023-04-10T08:21:19;2.00;;;1.00;;
1625;SDS011;806;48.770;9.156;2023-04-10T08:23:48;1.80;;;0.90;;
1625;SDS011;806;48.770;9.156;2023-04-10T08:26:16;1.88;;;1.02;;
1625;SDS011;806;48.770;9.156;2023-04-10T08:28:45;1.75;;;1.10;;
1625;SDS011;806;48.770;9.156;2023-04-10T08:31:14;2.20;;;1.00;;
1625;SDS011;806;48.770;9.156;2023-04-10T08:33:42;1.58;;;1.00;;
1625;SDS011;806;48.770;9.156;2023-04-10T08:36:10;1.50;;;1.00;;
1625;SDS011;806;48.770;9.156;2023-04-10T08:38:39;1.40;;;0.90;;
1625;SDS011;806;48.770;9.156;2023-04-10T08:41:08;1.50;;;0.90;;
1625;SDS011;806;48.770;9.156;2023-04-10T08:43:36;1.60;;;1.00;;
1625;SDS011;806;48.770;9.156;2023-04-10T08:46:03;1.40;;;0.90;;
1625;SDS011;806;48.770;9.156;2023-04-10T08:48:33;1.60;;;0.90;;
1625;SDS011;806;48.770;9.156;2023-04-10T08:51:03;1.60;;;0.80;;
1625;SDS011;806;48.770;9.156;2023-04-10T08:53:34;1.70;;;0.83;;
1625;SDS011;806;48.770;9.156;2023-04-10T08:56:05;1.55;;;0.90;;
1625;SDS011;806;48.770;9.156;2023-04-10T08:58:35;1.20;;;0.90;;
1625;SDS011;806;48.770;9.156;2023-04-10T09:01:03;1.20;;;0.85;;
1625;SDS011;806;48.770;9.156;2023-04-10T09:03:31;1.40;;;1.00;;
1625;SDS011;806;48.770;9.156;2023-04-10T09:06:00;1.42;;;0.90;;
1625;SDS011;806;48.770;9.156;2023-04-10T09:08:29;1.30;;;0.80;;
1625;SDS011;806;48.770;9.156;2023-04-10T09:10:58;1.33;;;0.90;;
1625;SDS011;806;48.770;9.156;2023-04-10T09:13:34;2.10;;;0.80;;
1625;SDS011;806;48.770;9.156;2023-04-10T09:16:03;1.30;;;0.80;;
1625;SDS011;806;48.770;9.156;2023-04-10T09:18:40;1.40;;;0.90;;
1625;SDS011;806;48.770;9.156;2023-04-10T09:21:09;1.30;;;0.90;;
1625;SDS011;806;48.770;9.156;2023-04-10T09:23:37;1.20;;;0.80;;
1625;SDS011;806;48.770;9.156;2023-04-10T09:28:55;1.40;;;0.80;;
1625;SDS011;806;48.770;9.156;2023-04-10T09:31:30;1.17;;;0.80;;
1625;SDS011;806;48.770;9.156;2023-04-10T09:34:08;1.10;;;0.80;;
1625;SDS011;806;48.770;9.156;2023-04-10T09:36:39;1.20;;;0.80;;
1625;SDS011;806;48.770;9.156;2023-04-10T09:39:07;1.10;;;0.70;;
1625;SDS011;806;48.770;9.156;2023-04-10T09:41:47;1.35;;;1.10;;
1625;SDS011;806;48.770;9.156;2023-04-10T09:44:16;1.00;;;0.68;;
1625;SDS011;806;48.770;9.156;2023-04-10T09:46:45;0.90;;;0.60;;
1625;SDS011;806;48.770;9.156;2023-04-10T09:49:13;0.95;;;0.60;;
1625;SDS011;806;48.770;9.156;2023-04-10T09:51:41;1.20;;;0.70;;
1625;SDS011;806;48.770;9.156;2023-04-10T09:54:09;1.00;;;0.60;;
1625;SDS011;806;48.770;9.156;2023-04-10T09:56:37;0.90;;;0.55;;
1625;SDS011;806;48.770;9.156;2023-04-10T09:59:06;0.90;;;0.70;;
1625;SDS011;806;48.770;9.156;2023-04-10T10:01:33;0.90;;;0.70;;
1625;SDS011;806;48.770;9.156;2023-04-10T10:04:05;0.90;;;0.60;;
1625;SDS011;806;48.770;9.156;2023-04-10T10:06:35;1.00;;;0.60;;
1625;SDS011;806;48.770;9.156;2023-04-10T10:09:04;0.90;;;0.60;;
1625;SDS011;806;48.770;9.156;2023-04-10T10:11:32;1.10;;;0.70;;
1625;SDS011;806;48.770;9.156;2023-04-10T10:14:01;1.00;;;0.70;;
1625;SDS011;806;48.770;9.156;2023-04-10T10:16:33;0.93;;;0.70;;
1625;SDS011;806;48.770;9.156;2023-04-10T10:19:05;0.90;;;0.50;;
1625;SDS011;806;48.770;9.156;2023-04-10T10:21:38;0.80;;;0.50;;
1625;SDS011;806;48.770;9.156;2023-04-10T10:24:07;1.00;;;0.60;;
1625;SDS011;806;48.770;9.156;2023-04-10T10:26:37;0.80;;;0.50;;
1625;SDS011;806;48.770;9.156;2023-04-10T10:29:06;0.70;;;0.50;;
1625;SDS011;806;48.770;9.156;2023-04-10T10:31:36;1.00;;;0.50;;
1625;SDS011;806;48.770;9.156;2023-04-10T10:34:04;0.90;;;0.50;;
1625;SDS011;806;48.770;9.156;2023-04-10T10:36:33;0.70;;;0.50;;
1625;SDS011;806;48.770;9.156;2023-04-10T10:39:04;0.60;;;0.40;;
1625;SDS011;806;48.770;9.156;2023-04-10T10:41:57;0.60;;;0.40;;
1625;SDS011;806;48.770;9.156;2023-04-10T10:44:33;0.70;;;0.50;;
1625;SDS011;806;48.770;9.156;2023-04-10T10:47:09;0.70;;;0.40;;
1625;SDS011;806;48.770;9.156;2023-04-10T10:49:50;1.00;;;0.40;;
1625;SDS011;806;48.770;9.156;2023-04-10T10:58:01;0.60;;;0.40;;
1625;SDS011;806;48.770;9.156;2023-04-10T11:03:41;0.60;;;0.40;;
1625;SDS011;806;48.770;9.156;2023-04-10T11:06:10;0.60;;;0.40;;
1625;SDS011;806;48.770;9.156;2023-04-10T11:08:44;0.80;;;0.40;;
1625;SDS011;806;48.770;9.156;2023-04-10T11:11:13;0.67;;;0.40;;
1625;SDS011;806;48.770;9.156;2023-04-10T11:13:42;0.60;;;0.40;;
1625;SDS011;806;48.770;9.156;2023-04-10T11:16:42;0.60;;;0.30;;
1625;SDS011;806;48.770;9.156;2023-04-10T11:19:13;0.70;;;0.40;;
1625;SDS011;806;48.770;9.156;2023-04-10T11:24:28;0.60;;;0.40;;
1625;SDS011;806;48.770;9.156;2023-04-10T11:30:04;0.70;;;0.40;;
1625;SDS011;806;48.770;9.156;2023-04-10T11:32:52;0.70;;;0.40;;
1625;SDS011;806;48.770;9.156;2023-04-10T11:35:21;0.60;;;0.40;;
1625;SDS011;806;48.770;9.156;2023-04-10T11:37:48;0.60;;;0.40;;
1625;SDS011;806;48.770;9.156;2023-04-10T11:40:15;0.70;;;0.50;;
1625;SDS011;806;48.770;9.156;2023-04-10T11:42:43;1.00;;;0.30;;
1625;SDS011;806;48.770;9.156;2023-04-10T11:45:21;0.70;;;0.45;;
1625;SDS011;806;48.770;9.156;2023-04-10T11:47:52;0.60;;;0.40;;
1625;SDS011;806;48.770;9.156;2023-04-10T11:50:19;0.70;;;0.40;;
1625;SDS011;806;48.770;9.156;2023-04-10T11:52:56;0.53;;;0.30;;
1625;SDS011;806;48.770;9.156;2023-04-10T11:55:34;0.50;;;0.30;;
1625;SDS011;806;48.770;9.156;2023-04-10T11:58:03;0.60;;;0.30;;
1625;SDS011;806;48.770;9.156;2023-04-10T12:00:30;0.60;;;0.30;;
1625;SDS011;806;48.770;9.156;2023-04-10T12:02:57;0.60;;;0.30;;
1625;SDS011;806;48.770;9.156;2023-04-10T12:05:26;0.80;;;0.40;;
1625;SDS011;806;48.770;9.156;2023-04-10T12:07:53;0.50;;;0.20;;
1625;SDS011;806;48.770;9.156;2023-04-10T12:10:21;0.50;;;0.30;;
1625;SDS011;806;48.770;9.156;2023-04-10T12:12:49;0.50;;;0.20;;
1625;SDS011;806;48.770;9.156;2023-04-10T12:15:26;0.50;;;0.20;;
1625;SDS011;806;48.770;9.156;2023-04-10T12:17:54;0.60;;;0.20;;
1625;SDS011;806;48.770;9.156;2023-04-10T12:20:21;0.60;;;0.30;;
1625;SDS011;806;48.770;9.156;2023-04-10T12:22:54;0.50;;;0.30;;
1625;SDS011;806;48.770;9.156;2023-04-10T12:25:25;0.40;;;0.20;;
1625;SDS011;806;48.770;9.156;2023-04-10T12:27:52;0.40;;;0.20;;
1625;SDS011;806;48.770;9.156;2023-04-10T12:30:19;0.30;;;0.20;;
1625;SDS011;806;48.770;9.156;2023-04-10T12:32:50;0.80;;;0.28;;
1625;SDS011;806;48.770;9.156;2023-04-10T12:35:18;0.47;;;0.30;;
1625;SDS011;806;48.770;9.156;2023-04-10T12:37:46;0.40;;;0.28;;
1625;SDS011;806;48.770;9.156;2023-04-10T12:40:15;0.30;;;0.20;;
1625;SDS011;806;48.770;9.156;2023-04-10T12:42:42;0.40;;;0.20;;
1625;SDS011;806;48.770;9.156;2023-04-10T12:45:10;0.40;;;0.20;;
1625;SDS011;806;48.770;9.156;2023-04-10T12:47:45;0.30;;;0.20;;
1625;SDS011;806;48.770;9.156;2023-04-10T12:50:13;0.50;;;0.20;;
1625;SDS011;806;48.770;9.156;2023-04-10T12:52:42;0.40;;;0.20;;
1625;SDS011;806;48.770;9.156;2023-04-10T12:55:11;0.40;;;0.20;;
1625;SDS011;806;48.770;9.156;2023-04-10T12:57:41;0.40;;;0.20;;
1625;SDS011;806;48.770;9.156;2023-04-10T13:00:10;0.45;;;0.20;;
1625;SDS011;806;48.770;9.156;2023-04-10T13:02:39;0.43;;;0.20;;
1625;SDS011;806;48.770;9.156;2023-04-10T13:05:07;0.40;;;0.20;;
1625;SDS011;806;48.770;9.156;2023-04-10T13:07:34;0.50;;;0.20;;
1625;SDS011;806;48.770;9.156;2023-04-10T13:10:02;0.40;;;0.20;;
1625;SDS011;806;48.770;9.156;2023-04-10T13:12:30;0.50;;;0.30;;
1625;SDS011;806;48.770;9.156;2023-04-10T13:15:00;0.60;;;0.30;;
1625;SDS011;806;48.770;9.156;2023-04-10T13:17:27;0.50;;;0.30;;
1625;SDS011;806;48.770;9.156;2023-04-10T13:19:54;0.60;;;0.30;;
1625;SDS011;806;48.770;9.156;2023-04-10T13:22:22;0.40;;;0.22;;
1625;SDS011;806;48.770;9.156;2023-04-10T13:24:49;0.50;;;0.30;;
1625;SDS011;806;48.770;9.156;2023-04-10T13:27:16;0.50;;;0.30;;
1625;SDS011;806;48.770;9.156;2023-04-10T13:29:43;0.50;;;0.30;;
1625;SDS011;806;48.770;9.156;2023-04-10T13:32:12;0.50;;;0.30;;
1625;SDS011;806;48.770;9.156;2023-04-10T13:34:39;0.60;;;0.40;;
1625;SDS011;806;48.770;9.156;2023-04-10T13:37:09;0.50;;;0.30;;
1625;SDS011;806;48.770;9.156;2023-04-10T13:39:37;0.50;;;0.30;;
1625;SDS011;806;48.770;9.156;2023-04-10T13:42:05;0.50;;;0.30;;
1625;SDS011;806;48.770;9.156;2023-04-10T13:44:32;0.57;;;0.38;;
1625;SDS011;806;48.770;9.156;2023-04-10T13:46:59;0.60;;;0.30;;
1625;SDS011;806;48.770;9.156;2023-04-10T13:49:27;0.40;;;0.20;;
1625;SDS011;806;48.770;9.156;2023-04-10T13:51:55;0.50;;;0.30;;
1625;SDS011;806;48.770;9.156;2023-04-10T13:54:22;0.50;;;0.30;;
1625;SDS011;806;48.770;9.156;2023-04-10T13:56:50;0.60;;;0.30;;
1625;SDS011;806;48.770;9.156;2023-04-10T13:59:20;0.70;;;0.30;;
1625;SDS011;806;48.770;9.156;2023-04-10T14:01:48;0.60;;;0.30;;
1625;SDS011;806;48.770;9.156;2023-04-10T14:04:16;0.50;;;0.30;;
1625;SDS011;806;48.770;9.156;2023-04-10T14:06:47;0.50;;;0.30;;
1625;SDS011;806;48.770;9.156;2023-04-10T14:09:17;0.50;;;0.30;;
1625;SDS011;806;48.770;9.156;2023-04-10T14:11:44;0.60;;;0.30;;
1625;SDS011;806;48.770;9.156;2023-04-10T14:14:11;0.65;;;0.30;;
1625;SDS011;806;48.770;9.156;2023-04-10T14:16:38;0.63;;;0.30;;
1625;SDS011;806;48.770;9.156;2023-04-10T14:19:05;0.60;;;0.30;;
1625;SDS011;806;48.770;9.156;2023-04-10T14:21:33;0.70;;;0.30;;
1625;SDS011;806;48.770;9.156;2023-04-10T14:24:02;0.60;;;0.30;;
1625;SDS011;806;48.770;9.156;2023-04-10T14:26:29;0.50;;;0.30;;
1625;SDS011;806;48.770;9.156;2023-04-10T14:28:57;0.70;;;0.40;;
1625;SDS011;806;48.770;9.156;2023-04-10T14:31:24;0.55;;;0.30;;
1625;SDS011;806;48.770;9.156;2023-04-10T14:33:51;1.00;;;0.60;;
1625;SDS011;806;48.770;9.156;2023-04-10T14:36:18;0.70;;;0.40;;
1625;SDS011;806;48.770;9.156;2023-04-10T14:38:45;0.60;;;0.40;;
1625;SDS011;806;48.770;9.156;2023-04-10T14:41:14;1.30;;;0.40;;
1625;SDS011;806;48.770;9.156;2023-04-10T14:43:41;0.80;;;0.50;;
1625;SDS011;806;48.770;9.156;2023-04-10T14:46:08;0.65;;;0.40;;
1625;SDS011;806;48.770;9.156;2023-04-10T14:48:38;0.70;;;0.50;;
1625;SDS011;806;48.770;9.156;2023-04-10T14:51:06;0.60;;;0.30;;
1625;SDS011;806;48.770;9.156;2023-04-10T14:53:36;0.60;;;0.30;;
1625;SDS011;806;48.770;9.156;2023-04-10T14:56:08;0.70;;;0.40;;
1625;SDS011;806;48.770;9.156;2023-04-10T14:58:38;0.57;;;0.30;;
1625;SDS011;806;48.770;9.156;2023-04-10T15:01:07;0.50;;;0.30;;
1625;SDS011;806;48.770;9.156;2023-04-10T15:03:35;0.60;;;0.30;;
1625;SDS011;806;48.770;9.156;2023-04-10T15:06:03;0.55;;;0.30;;
1625;SDS011;806;48.770;9.156;2023-04-10T15:08:31;0.70;;;0.40;;
1625;SDS011;806;48.770;9.156;2023-04-10T15:10:58;0.50;;;0.30;;
1625;SDS011;806;48.770;9.156;2023-04-10T15:13:26;4.50;;;3.20;;
1625;SDS011;806;48.770;9.156;2023-04-10T15:15:54;0.77;;;0.40;;
1625;SDS011;806;48.770;9.156;2023-04-10T15:18:21;0.90;;;0.50;;
1625;SDS011;806;48.770;9.156;2023-04-10T15:20:49;0.77;;;0.40;;
1625;SDS011;806;48.770;9.156;2023-04-10T15:23:19;0.60;;;0.40;;
1625;SDS011;806;48.770;9.156;2023-04-10T15:25:46;0.70;;;0.30;;
1625;SDS011;806;48.770;9.156;2023-04-10T15:28:19;0.82;;;0.38;;
1625;SDS011;806;48.770;9.156;2023-04-10T15:30:46;0.50;;;0.30;;
1625;SDS011;806;48.770;9.156;2023-04-10T15:33:15;0.68;;;0.40;;
1625;SDS011;806;48.770;9.156;2023-04-10T15:35:45;0.60;;;0.40;;
1625;SDS011;806;48.770;9.156;2023-04-10T15:38:13;0.60;;;0.30;;
1625;SDS011;806;48.770;9.156;2023-04-10T15:40:40;0.60;;;0.30;;
1625;SDS011;806;48.770;9.156;2023-04-10T15:43:08;0.70;;;0.40;;
1625;SDS011;806;48.770;9.156;2023-04-10T15:45:35;0.90;;;0.40;;
1625;SDS011;806;48.770;9.156;2023-04-10T15:48:02;0.70;;;0.40;;
1625;SDS011;806;48.770;9.156;2023-04-10T15:50:31;0.60;;;0.40;;
1625;SDS011;806;48.770;9.156;2023-04-10T15:52:59;0.90;;;0.40;;
1625;SDS011;806;48.770;9.156;2023-04-10T15:55:26;0.60;;;0.40;;
1625;SDS011;806;48.770;9.156;2023-04-10T15:57:53;0.70;;;0.40;;
1625;SDS011;806;48.770;9.156;2023-04-10T16:00:21;0.80;;;0.43;;
1625;SDS011;806;48.770;9.156;2023-04-10T16:02:48;0.70;;;0.40;;